首页
METAR-TAF:

METAR-TAF

机场 :

Dole, 法国

纬度: 47-02-34N, 经度: 005-26-06E, 海拔: 196米

当前天气观测

该预报发布于24分钟前的00:30 UTC
风速7节,风向北转东北
温度 5°C
湿度 87%
气压 1027 hPa
能见度10公里或以上
1500米以下无云,无积雨云

METAR: LFGJ 070030Z AUTO 03007KT CAVOK 05/03 Q1027 NOSIG

时间: 02:54 (00:54 UTC)


TAF: 丢失

超过4000个机场的气象观测和天气预报(METAR&TAF报告)。

可查询的气象台以黄色和红色小点在地图上表示。

将鼠标移到小点上方,可查看气象台名称。

然后点击查看天气观测和预报。

如需切换地图:点击带黑十字的绿色按钮放大地图;点击带横线的绿色按钮缩小地图;或者点击绿色箭头查看邻近地区的地图。


METAR-TAF: